Time;durP1;ratioP1;P1;durP2;ratioP2;P2;SDS_P1;SDS_P2;PMS_P1;PMS_P2;Temp;Humidity;BMP_temperature;BMP_pressure;BME280_temperature;BME280_humidity;BME280_pressure;Samples;Min_cycle;Max_cycle;Signal;HPM_P1;HPM_P2
2021/06/18 00:00:18;;;;;;;5.97;5.38;;;23.80;56.80;;;;;;3594239;39;20659;-73
2021/06/18 00:02:44;;;;;;;7.32;5.85;;;23.80;57.00;;;;;;3591104;39;20047;-73
2021/06/18 00:05:11;;;;;;;7.13;6.00;;;23.80;57.00;;;;;;3593943;39;20461;-73
2021/06/18 00:07:37;;;;;;;6.25;5.60;;;23.80;57.20;;;;;;3597165;39;20731;-73
2021/06/18 00:10:06;;;;;;;6.05;5.45;;;23.70;57.30;;;;;;3598359;39;20023;-73
2021/06/18 00:12:31;;;;;;;6.50;5.50;;;23.70;57.40;;;;;;3597860;39;20803;-73
2021/06/18 00:14:59;;;;;;;5.55;5.05;;;23.70;57.30;;;;;;3593600;39;20028;-73
2021/06/18 00:17:26;;;;;;;6.22;5.63;;;23.70;57.40;;;;;;3591020;39;20024;-73
2021/06/18 00:19:52;;;;;;;6.10;5.20;;;23.70;57.70;;;;;;3592213;39;20046;-73
2021/06/18 00:22:18;;;;;;;7.90;6.28;;;23.70;57.80;;;;;;3597243;39;20032;-73
2021/06/18 00:24:43;;;;;;;6.18;5.57;;;23.60;57.80;;;;;;3598847;39;20036;-73
2021/06/18 00:27:09;;;;;;;6.35;5.50;;;23.60;57.90;;;;;;3597328;39;20039;-73
2021/06/18 00:29:35;;;;;;;9.50;5.75;;;23.60;58.00;;;;;;3594498;39;20032;-73
2021/06/18 00:32:00;;;;;;;6.47;5.88;;;23.60;58.00;;;;;;3591498;39;20032;-73
2021/06/18 00:34:26;;;;;;;6.57;5.60;;;23.50;58.10;;;;;;3591658;39;20105;-73
2021/06/18 00:36:52;;;;;;;8.60;5.47;;;23.50;58.40;;;;;;3596771;39;20028;-73
2021/06/18 00:39:17;;;;;;;7.50;5.78;;;23.50;58.60;;;;;;3599761;39;20024;-73
2021/06/18 00:41:43;;;;;;;9.38;6.20;;;23.40;58.80;;;;;;3599981;39;20035;-73
2021/06/18 00:44:09;;;;;;;6.38;5.78;;;23.40;59.10;;;;;;3596888;39;20063;-73
2021/06/18 00:46:35;;;;;;;6.55;5.90;;;23.30;59.20;;;;;;3592597;39;20109;-73
2021/06/18 00:49:01;;;;;;;6.68;6.07;;;23.30;59.30;;;;;;3592662;39;20031;-73
2021/06/18 00:51:27;;;;;;;6.20;5.60;;;23.30;59.60;;;;;;3595410;39;20047;-73
2021/06/18 00:53:54;;;;;;;9.35;5.65;;;23.30;59.70;;;;;;3599173;39;20044;-72
2021/06/18 00:56:20;;;;;;;8.45;5.90;;;23.20;59.80;;;;;;3600561;39;20079;-73
2021/06/18 00:58:47;;;;;;;6.43;5.82;;;23.20;60.00;;;;;;3596858;39;20031;-73
2021/06/18 01:01:12;;;;;;;7.25;6.28;;;23.10;60.00;;;;;;3593797;39;20908;-73
2021/06/18 01:03:38;;;;;;;7.10;6.05;;;23.10;60.00;;;;;;3591843;39;20029;-73
2021/06/18 01:06:04;;;;;;;7.10;6.40;;;23.10;60.30;;;;;;3594693;39;20421;-73
2021/06/18 01:08:46;;;;;;;6.60;5.90;;;23.00;60.30;;;;;;3597604;39;20039;-73
2021/06/18 01:11:21;;;;;;;7.07;5.80;;;23.00;60.50;;;;;;3599745;39;20112;-73
2021/06/18 01:13:59;;;;;;;6.80;6.05;;;23.00;60.90;;;;;;3597099;39;20059;-73
2021/06/18 01:16:34;;;;;;;6.75;5.82;;;22.90;61.10;;;;;;3587517;39;20039;-73
2021/06/18 01:19:13;;;;;;;9.25;5.93;;;22.90;61.40;;;;;;3592258;39;20393;-73
2021/06/18 01:21:45;;;;;;;6.35;5.75;;;22.90;61.50;;;;;;3595124;39;20091;-73
2021/06/18 01:24:40;;;;;;;7.57;5.90;;;22.90;61.70;;;;;;3599138;39;20614;-73
2021/06/18 01:27:33;;;;;;;7.13;6.43;;;22.80;61.80;;;;;;3598898;39;20043;-73
2021/06/18 01:30:11;;;;;;;6.82;6.13;;;22.80;61.90;;;;;;3595747;39;20031;-73
2021/06/18 01:32:48;;;;;;;6.90;6.20;;;22.70;61.90;;;;;;3591982;39;20148;-73
2021/06/18 01:35:17;;;;;;;6.88;6.18;;;22.70;62.20;;;;;;3594079;39;20016;-72
2021/06/18 01:37:47;;;;;;;6.88;6.18;;;22.70;62.30;;;;;;3595400;39;20035;-73
2021/06/18 01:40:15;;;;;;;7.43;6.10;;;22.70;62.30;;;;;;3591054;39;20060;-73
2021/06/18 01:42:43;;;;;;;7.20;6.15;;;22.60;62.30;;;;;;3592805;39;20438;-73
2021/06/18 01:45:16;;;;;;;6.88;5.88;;;22.60;62.30;;;;;;3586143;39;20095;-73
2021/06/18 01:47:44;;;;;;;6.55;5.95;;;22.60;62.60;;;;;;3598421;39;20043;-73
2021/06/18 01:50:14;;;;;;;7.78;6.13;;;22.50;62.80;;;;;;3598393;39;20035;-73
2021/06/18 01:52:42;;;;;;;6.45;5.90;;;22.50;63.00;;;;;;3594886;39;20533;-73
2021/06/18 01:55:09;;;;;;;6.63;5.90;;;22.50;62.90;;;;;;3582433;39;20040;-73
2021/06/18 01:57:38;;;;;;;7.55;6.22;;;22.50;63.00;;;;;;3593599;39;20551;-73
2021/06/18 02:00:07;;;;;;;7.15;6.50;;;22.50;63.60;;;;;;3595751;39;20027;-73
2021/06/18 02:02:38;;;;;;;7.95;6.22;;;22.40;63.10;;;;;;3593984;39;20096;-73
2021/06/18 02:05:06;;;;;;;6.80;6.20;;;22.40;63.20;;;;;;3593650;39;20031;-73
2021/06/18 02:07:34;;;;;;;7.18;6.47;;;22.30;63.30;;;;;;3595328;39;20051;-73
2021/06/18 02:10:01;;;;;;;8.15;6.43;;;22.30;63.30;;;;;;3591656;39;20462;-73
2021/06/18 02:12:27;;;;;;;7.15;5.97;;;22.30;63.40;;;;;;3595968;39;20042;-73
2021/06/18 02:14:56;;;;;;;7.88;6.15;;;22.30;63.60;;;;;;3594862;39;20095;-73
2021/06/18 02:17:23;;;;;;;7.25;6.38;;;22.20;63.70;;;;;;3598487;39;20134;-73
2021/06/18 02:19:49;;;;;;;9.88;6.05;;;22.20;64.00;;;;;;3597650;39;20124;-73
2021/06/18 02:22:17;;;;;;;9.55;7.05;;;22.20;64.10;;;;;;3595311;39;20689;-73
2021/06/18 02:24:43;;;;;;;8.55;7.00;;;22.30;64.00;;;;;;3596986;39;20512;-70
2021/06/18 02:27:13;;;;;;;7.35;6.65;;;22.20;63.90;;;;;;3593287;39;20125;-73
2021/06/18 02:29:41;;;;;;;7.63;6.50;;;22.20;64.20;;;;;;3595030;39;20036;-73
2021/06/18 02:32:10;;;;;;;8.38;6.40;;;22.10;64.20;;;;;;3584556;39;20032;-73
2021/06/18 02:34:36;;;;;;;8.02;6.90;;;22.10;64.20;;;;;;3596488;39;20033;-73
2021/06/18 02:37:05;;;;;;;12.05;7.10;;;22.10;64.10;;;;;;3596652;39;20301;-72
2021/06/18 02:39:30;;;;;;;11.88;7.45;;;22.10;64.00;;;;;;3597893;39;20071;-73
2021/06/18 02:41:56;;;;;;;8.50;7.07;;;22.20;64.50;;;;;;3594547;39;20735;-73
2021/06/18 02:44:22;;;;;;;6.82;6.18;;;22.20;64.00;;;;;;3593880;39;20047;-73
2021/06/18 02:47:09;;;;;;;7.15;6.45;;;22.20;63.80;;;;;;3588008;39;20093;-74
2021/06/18 02:49:44;;;;;;;8.70;5.85;;;22.20;63.80;;;;;;3594922;39;20035;-73
2021/06/18 02:52:19;;;;;;;7.15;6.40;;;22.30;63.50;;;;;;3596934;39;20085;-73
2021/06/18 02:54:53;;;;;;;9.90;6.25;;;22.30;63.50;;;;;;3598303;39;20413;-73
2021/06/18 02:57:27;;;;;;;6.93;6.10;;;22.30;63.60;;;;;;3596504;39;20049;-74
2021/06/18 02:59:55;;;;;;;8.10;6.20;;;22.30;63.70;;;;;;3594277;39;20148;-73
2021/06/18 03:02:25;;;;;;;7.75;6.10;;;22.30;63.70;;;;;;3597089;39;20044;-75
2021/06/18 03:04:53;;;;;;;9.18;6.20;;;22.40;63.60;;;;;;3589087;39;20042;-73
2021/06/18 03:07:27;;;;;;;6.75;5.82;;;22.30;63.60;;;;;;3595178;39;20047;-73
2021/06/18 03:09:57;;;;;;;7.35;6.00;;;22.30;63.80;;;;;;3596354;39;20256;-73
2021/06/18 03:12:25;;;;;;;6.75;6.15;;;22.30;63.80;;;;;;3585983;39;20039;-73
2021/06/18 03:14:54;;;;;;;7.68;6.00;;;22.20;63.90;;;;;;3595173;39;20021;-73
2021/06/18 03:17:22;;;;;;;8.68;6.38;;;22.30;64.20;;;;;;3594738;39;20332;-73
2021/06/18 03:19:53;;;;;;;9.35;6.47;;;22.30;64.10;;;;;;3592443;39;20043;-73
2021/06/18 03:22:21;;;;;;;8.00;6.15;;;22.30;64.00;;;;;;3596661;39;20036;-73
2021/06/18 03:24:48;;;;;;;7.13;5.80;;;22.30;64.10;;;;;;3598633;39;20042;-72
2021/06/18 03:27:17;;;;;;;6.63;5.93;;;22.30;64.10;;;;;;3591562;39;20027;-73
2021/06/18 03:29:43;;;;;;;6.90;5.72;;;22.30;64.20;;;;;;3594730;39;20027;-73
2021/06/18 03:32:10;;;;;;;10.60;6.50;;;22.30;64.20;;;;;;3597673;39;20034;-73
2021/06/18 03:34:37;;;;;;;8.68;6.10;;;22.30;64.40;;;;;;3589590;39;20403;-73
2021/06/18 03:37:03;;;;;;;6.18;5.57;;;22.30;64.20;;;;;;3584801;39;20059;-75
2021/06/18 03:39:30;;;;;;;9.60;6.78;;;22.30;64.10;;;;;;3591111;39;20780;-73
2021/06/18 03:41:58;;;;;;;7.72;6.05;;;22.20;64.50;;;;;;3591068;39;20042;-74
2021/06/18 03:44:24;;;;;;;8.18;5.70;;;22.40;64.10;;;;;;3598117;39;20443;-73
2021/06/18 03:46:52;;;;;;;6.75;5.72;;;22.40;63.80;;;;;;3596772;39;20032;-73
2021/06/18 03:49:18;;;;;;;8.38;5.78;;;22.50;63.60;;;;;;3591808;39;20043;-72
2021/06/18 03:51:44;;;;;;;7.30;5.85;;;22.50;63.80;;;;;;3594453;39;20049;-73
2021/06/18 03:54:10;;;;;;;6.82;5.75;;;22.60;63.60;;;;;;3596172;39;20061;-72
2021/06/18 03:56:39;;;;;;;8.57;5.90;;;22.60;63.40;;;;;;3592710;39;20044;-73
2021/06/18 03:59:06;;;;;;;7.03;6.13;;;22.70;63.80;;;;;;3597595;39;20559;-76
2021/06/18 04:01:33;;;;;;;7.80;6.53;;;22.70;63.50;;;;;;3596868;39;20038;-72
2021/06/18 04:04:00;;;;;;;8.43;6.18;;;22.60;63.70;;;;;;3593780;39;20040;-74
2021/06/18 04:06:28;;;;;;;9.40;6.45;;;22.60;64.00;;;;;;3596493;39;20032;-75
2021/06/18 04:08:56;;;;;;;6.80;6.10;;;22.60;64.30;;;;;;3596412;39;20584;-66
2021/06/18 04:11:21;;;;;;;8.30;6.35;;;22.60;64.20;;;;;;3593585;39;20436;-68
2021/06/18 04:13:48;;;;;;;6.85;6.15;;;22.60;64.60;;;;;;3598962;39;20028;-68
2021/06/18 04:16:14;;;;;;;7.47;6.28;;;22.50;64.30;;;;;;3596569;39;20032;-69
2021/06/18 04:18:43;;;;;;;10.93;6.75;;;22.50;64.50;;;;;;3597437;39;20326;-68
2021/06/18 04:21:28;;;;;;;9.65;6.40;;;22.60;64.70;;;;;;3592619;39;20085;-68
2021/06/18 04:23:54;;;;;;;10.80;6.53;;;22.60;64.70;;;;;;3595176;39;20108;-68
2021/06/18 04:26:20;;;;;;;7.35;6.43;;;22.60;65.30;;;;;;3595098;39;20020;-69
2021/06/18 04:28:47;;;;;;;6.75;6.03;;;22.60;65.30;;;;;;3592332;39;20028;-68
2021/06/18 04:31:13;;;;;;;6.90;6.22;;;22.60;65.00;;;;;;3595057;39;20050;-68
2021/06/18 04:33:39;;;;;;;12.88;6.53;;;22.70;64.80;;;;;;3598863;39;20493;-68
2021/06/18 04:36:05;;;;;;;7.18;6.43;;;22.70;65.40;;;;;;3593395;39;20028;-68
2021/06/18 04:38:31;;;;;;;8.95;6.82;;;22.70;66.20;;;;;;3585886;39;20048;-68
2021/06/18 04:40:57;;;;;;;8.95;5.63;;;22.70;66.30;;;;;;3597311;39;20598;-68
2021/06/18 04:43:23;;;;;;;7.43;5.60;;;22.80;65.00;;;;;;3592161;39;20052;-68
2021/06/18 04:45:49;;;;;;;6.93;6.22;;;22.80;64.90;;;;;;3594913;39;20031;-68
2021/06/18 04:48:15;;;;;;;8.77;6.13;;;22.80;65.30;;;;;;3598779;39;20032;-68
2021/06/18 04:50:40;;;;;;;6.93;6.22;;;22.90;64.90;;;;;;3599291;39;20631;-68
2021/06/18 04:53:10;;;;;;;9.02;5.88;;;23.00;65.10;;;;;;3597091;39;20032;-68
2021/06/18 04:55:38;;;;;;;6.80;5.60;;;23.10;64.00;;;;;;3598209;39;20047;-68
2021/06/18 04:58:04;;;;;;;6.85;5.78;;;23.20;63.50;;;;;;3599951;39;20047;-68
2021/06/18 05:00:30;;;;;;;7.00;5.88;;;23.30;62.30;;;;;;3596799;39;20032;-68
2021/06/18 05:02:55;;;;;;;6.10;5.50;;;23.40;62.10;;;;;;3593566;39;20020;-68
2021/06/18 05:05:22;;;;;;;6.65;5.40;;;23.50;61.70;;;;;;3591150;39;20043;-68
2021/06/18 05:07:55;;;;;;;9.90;5.95;;;23.60;61.30;;;;;;3594780;39;20023;-68
2021/06/18 05:10:22;;;;;;;6.03;5.53;;;23.70;60.80;;;;;;3597517;39;20142;-68
2021/06/18 05:12:47;;;;;;;6.43;5.57;;;23.80;59.90;;;;;;3589329;39;20043;-68
2021/06/18 05:15:14;;;;;;;5.97;5.40;;;24.00;59.60;;;;;;3594464;39;20037;-68
2021/06/18 05:17:40;;;;;;;8.38;5.70;;;24.00;59.80;;;;;;3597726;39;20048;-68
2021/06/18 05:20:06;;;;;;;10.35;5.45;;;24.10;60.30;;;;;;3598923;39;20476;-68
2021/06/18 05:22:33;;;;;;;6.15;5.47;;;24.30;59.90;;;;;;3598002;39;20023;-68
2021/06/18 05:24:58;;;;;;;7.93;5.60;;;24.50;59.20;;;;;;3598872;39;20336;-68
2021/06/18 05:27:24;;;;;;;10.40;5.57;;;24.60;57.20;;;;;;3596944;39;20140;-68
2021/06/18 05:29:50;;;;;;;8.02;5.47;;;24.80;56.90;;;;;;3597833;39;20035;-68
2021/06/18 05:32:19;;;;;;;7.13;5.47;;;24.80;57.00;;;;;;3595413;39;20109;-68
2021/06/18 05:34:45;;;;;;;6.70;5.85;;;24.90;56.90;;;;;;3585639;39;20034;-68
2021/06/18 05:37:11;;;;;;;7.68;5.82;;;25.00;56.50;;;;;;3598925;39;20031;-68
2021/06/18 05:39:37;;;;;;;7.70;5.28;;;25.00;57.10;;;;;;3595805;39;20035;-68
2021/06/18 05:42:03;;;;;;;6.75;6.05;;;25.10;56.50;;;;;;3593931;39;20479;-69
2021/06/18 05:44:28;;;;;;;6.30;5.50;;;25.20;56.10;;;;;;3595971;39;20071;-68
2021/06/18 05:46:54;;;;;;;6.85;5.70;;;25.20;55.70;;;;;;3596464;39;20728;-68
2021/06/18 05:49:20;;;;;;;7.43;5.63;;;25.30;55.80;;;;;;3592680;39;20411;-68
2021/06/18 05:51:46;;;;;;;8.20;5.43;;;25.40;55.50;;;;;;3596078;39;20027;-69
2021/06/18 05:54:11;;;;;;;8.65;5.70;;;25.40;55.70;;;;;;3597011;39;20066;-69
2021/06/18 05:56:39;;;;;;;9.10;5.75;;;25.50;55.40;;;;;;3592927;39;20109;-68
2021/06/18 05:59:05;;;;;;;9.80;5.88;;;25.60;55.20;;;;;;3590362;39;20072;-68
2021/06/18 06:01:30;;;;;;;6.85;5.40;;;25.70;54.60;;;;;;3595135;39;20302;-68
2021/06/18 06:03:56;;;;;;;6.93;5.25;;;25.80;54.70;;;;;;3597355;39;20385;-68
2021/06/18 06:06:22;;;;;;;7.88;5.43;;;25.90;53.90;;;;;;3598291;39;20036;-68
2021/06/18 06:08:51;;;;;;;10.32;5.68;;;26.00;53.70;;;;;;3596285;39;20121;-68
2021/06/18 06:11:17;;;;;;;8.45;5.70;;;26.10;54.20;;;;;;3593542;39;20783;-69
2021/06/18 06:13:43;;;;;;;11.23;5.40;;;26.10;53.90;;;;;;3598951;39;20043;-69
2021/06/18 06:16:08;;;;;;;6.32;5.55;;;26.30;53.80;;;;;;3595576;39;20047;-69
2021/06/18 06:18:34;;;;;;;5.70;5.00;;;26.40;53.70;;;;;;3593947;39;20107;-69
2021/06/18 06:21:00;;;;;;;9.80;5.57;;;26.50;53.00;;;;;;3590465;39;20027;-69
2021/06/18 06:23:25;;;;;;;6.82;5.22;;;26.60;52.50;;;;;;3595264;39;20028;-68
2021/06/18 06:25:51;;;;;;;6.22;5.13;;;26.60;52.90;;;;;;3586466;39;20036;-69
2021/06/18 06:28:17;;;;;;;5.82;5.28;;;26.90;52.60;;;;;;3581849;39;20071;-68
2021/06/18 06:30:42;;;;;;;7.03;4.95;;;27.10;52.20;;;;;;3594848;39;20024;-69
2021/06/18 06:33:08;;;;;;;6.35;4.68;;;27.10;51.80;;;;;;3594315;39;20746;-68
2021/06/18 06:35:34;;;;;;;7.70;5.30;;;27.20;51.90;;;;;;3590751;39;20039;-68
2021/06/18 06:37:59;;;;;;;7.68;4.78;;;27.20;51.50;;;;;;3593247;39;20016;-68
2021/06/18 06:40:25;;;;;;;8.00;4.55;;;27.30;51.50;;;;;;3593736;39;20136;-68
2021/06/18 06:42:51;;;;;;;9.27;5.00;;;27.30;51.60;;;;;;3589056;39;20124;-68
2021/06/18 06:45:18;;;;;;;10.57;4.95;;;27.30;50.30;;;;;;3589006;39;20043;-68
2021/06/18 06:47:46;;;;;;;7.00;4.32;;;27.40;50.60;;;;;;3597956;39;20135;-68
2021/06/18 06:50:12;;;;;;;6.50;4.00;;;27.60;49.70;;;;;;3598401;39;20032;-69
2021/06/18 06:52:38;;;;;;;7.45;4.50;;;27.60;49.90;;;;;;3597141;39;20052;-68
2021/06/18 06:55:05;;;;;;;4.78;4.22;;;27.60;49.90;;;;;;3596166;39;20031;-69
2021/06/18 06:57:31;;;;;;;7.97;4.20;;;27.70;49.60;;;;;;3593262;39;20111;-69
2021/06/18 06:59:57;;;;;;;8.02;4.18;;;27.90;49.00;;;;;;3598924;39;20034;-68
2021/06/18 07:02:23;;;;;;;10.27;4.47;;;28.00;48.60;;;;;;3585432;39;20757;-68
2021/06/18 07:04:48;;;;;;;5.75;3.80;;;28.10;48.70;;;;;;3589220;39;20292;-68
2021/06/18 07:07:14;;;;;;;4.93;3.70;;;28.20;48.70;;;;;;3599627;39;20035;-69
2021/06/18 07:09:40;;;;;;;5.18;3.50;;;28.30;47.80;;;;;;3594522;39;20028;-68
2021/06/18 07:12:07;;;;;;;3.65;2.95;;;28.40;46.70;;;;;;3598019;39;20038;-68
2021/06/18 07:14:37;;;;;;;3.85;3.00;;;28.50;46.50;;;;;;3593010;39;20203;-68
2021/06/18 07:17:04;;;;;;;5.50;3.10;;;28.60;46.90;;;;;;3583883;39;20058;-68
2021/06/18 07:19:30;;;;;;;3.83;3.13;;;28.70;46.90;;;;;;3597591;39;20032;-68
2021/06/18 07:21:56;;;;;;;5.30;3.33;;;28.80;46.80;;;;;;3590433;39;20032;-68
2021/06/18 07:24:22;;;;;;;8.50;3.42;;;28.90;45.80;;;;;;3593837;39;20124;-68
2021/06/18 07:26:47;;;;;;;6.35;2.83;;;29.00;44.90;;;;;;3582387;39;20036;-67
2021/06/18 07:29:13;;;;;;;5.18;3.20;;;29.10;44.40;;;;;;3597724;39;20032;-69
2021/06/18 07:31:39;;;;;;;3.78;2.88;;;29.10;44.10;;;;;;3595985;39;20337;-69
2021/06/18 07:34:06;;;;;;;6.63;3.58;;;29.20;44.00;;;;;;3594995;39;20025;-69
2021/06/18 07:36:32;;;;;;;6.68;3.03;;;29.30;43.50;;;;;;3595794;39;20667;-69
2021/06/18 07:38:58;;;;;;;6.50;3.42;;;29.40;43.50;;;;;;3588891;39;20032;-69
2021/06/18 07:41:24;;;;;;;5.38;3.15;;;29.50;43.00;;;;;;3589064;39;20026;-69
2021/06/18 07:43:49;;;;;;;5.03;2.50;;;29.60;42.70;;;;;;3591430;39;20047;-69
2021/06/18 07:46:15;;;;;;;5.30;2.78;;;29.70;42.20;;;;;;3592911;39;20046;-69
2021/06/18 07:48:41;;;;;;;15.45;3.58;;;29.70;42.30;;;;;;3594866;39;20098;-69
2021/06/18 07:51:08;;;;;;;3.90;2.55;;;29.80;41.70;;;;;;3590590;39;20048;-70
2021/06/18 07:53:34;;;;;;;3.25;2.40;;;30.00;41.10;;;;;;3595299;39;20124;-69
2021/06/18 07:56:00;;;;;;;3.08;2.40;;;30.10;40.90;;;;;;3594335;39;20698;-70
2021/06/18 07:58:26;;;;;;;4.35;2.63;;;30.10;41.00;;;;;;3589874;39;20048;-70
2021/06/18 08:00:52;;;;;;;3.95;2.42;;;30.20;40.90;;;;;;3597868;39;20027;-69
2021/06/18 08:03:18;;;;;;;5.00;2.45;;;30.30;40.90;;;;;;3585762;39;20095;-72
2021/06/18 08:05:44;;;;;;;4.97;2.38;;;30.50;40.40;;;;;;3588790;39;20068;-71
2021/06/18 08:08:12;;;;;;;2.88;2.33;;;30.50;39.30;;;;;;3596638;39;20136;-72
2021/06/18 08:10:38;;;;;;;4.65;2.45;;;30.60;39.60;;;;;;3594533;39;20024;-72
2021/06/18 08:13:03;;;;;;;4.88;2.53;;;30.60;39.30;;;;;;3590716;39;20043;-72
2021/06/18 08:15:30;;;;;;;3.15;2.30;;;30.70;38.70;;;;;;3589014;39;20078;-72
2021/06/18 08:17:56;;;;;;;3.95;2.03;;;30.80;38.60;;;;;;3595398;39;20027;-71
2021/06/18 08:20:25;;;;;;;5.88;2.28;;;30.80;38.40;;;;;;3590793;39;20700;-70
2021/06/18 08:22:51;;;;;;;5.07;2.17;;;31.00;38.60;;;;;;3597129;39;20067;-70
2021/06/18 08:25:17;;;;;;;5.85;2.55;;;31.00;38.60;;;;;;3596905;39;20023;-71
2021/06/18 08:27:44;;;;;;;5.65;2.47;;;31.20;37.40;;;;;;3596263;39;20028;-71
2021/06/18 08:30:10;;;;;;;3.97;2.30;;;31.20;38.10;;;;;;3596377;39;20023;-71
2021/06/18 08:32:36;;;;;;;3.53;2.30;;;31.20;37.30;;;;;;3594642;39;20027;-71
2021/06/18 08:35:02;;;;;;;2.67;2.20;;;31.30;37.60;;;;;;3594124;39;20136;-71
2021/06/18 08:37:27;;;;;;;3.88;2.33;;;31.40;37.60;;;;;;3589906;39;20051;-71
2021/06/18 08:39:53;;;;;;;7.68;2.17;;;31.40;37.40;;;;;;3587699;39;20133;-70
2021/06/18 08:42:19;;;;;;;3.63;2.20;;;31.50;37.50;;;;;;3597094;39;20042;-70
2021/06/18 08:44:46;;;;;;;4.30;2.55;;;31.60;37.10;;;;;;3598816;39;20401;-71
2021/06/18 08:47:13;;;;;;;4.88;2.13;;;31.70;36.70;;;;;;3595736;39;20039;-70
2021/06/18 08:49:39;;;;;;;3.33;2.15;;;31.80;36.10;;;;;;3597151;39;20032;-71
2021/06/18 08:52:05;;;;;;;9.40;2.65;;;31.90;36.30;;;;;;3592353;39;20035;-70
2021/06/18 08:54:41;;;;;;;4.85;1.98;;;32.00;35.60;;;;;;3596055;39;20030;-68
2021/06/18 08:57:33;;;;;;;5.32;2.22;;;32.00;35.20;;;;;;3597489;39;20027;-69
2021/06/18 08:59:59;;;;;;;3.30;2.17;;;32.20;35.10;;;;;;3595659;39;20031;-68
2021/06/18 09:02:25;;;;;;;4.35;2.25;;;32.20;34.40;;;;;;3590023;39;20027;-69
2021/06/18 09:05:03;;;;;;;2.85;2.05;;;32.20;34.30;;;;;;3595549;39;20043;-69
2021/06/18 09:07:28;;;;;;;2.63;2.03;;;32.20;34.50;;;;;;3597327;39;20023;-68
2021/06/18 09:09:54;;;;;;;3.90;2.20;;;32.20;34.30;;;;;;3588026;39;20034;-69
2021/06/18 09:12:20;;;;;;;2.33;1.95;;;32.30;34.30;;;;;;3595108;39;20024;-68
2021/06/18 09:14:46;;;;;;;5.20;2.38;;;32.40;32.40;;;;;;3595047;39;20036;-67
2021/06/18 09:17:27;;;;;;;2.40;2.03;;;32.50;32.60;;;;;;3595994;39;20028;-68
2021/06/18 09:20:00;;;;;;;2.25;1.85;;;32.40;32.40;;;;;;3596311;39;20339;-67
2021/06/18 09:22:42;;;;;;;2.38;1.83;;;32.40;33.10;;;;;;3594915;39;20587;-71
2021/06/18 09:25:13;;;;;;;2.25;1.95;;;32.40;32.90;;;;;;3594154;39;20032;-71
2021/06/18 09:27:45;;;;;;;3.28;2.00;;;32.60;31.30;;;;;;3591339;39;20483;-68
2021/06/18 09:30:19;;;;;;;3.08;1.85;;;32.70;31.70;;;;;;3599299;39;20024;-67
2021/06/18 09:33:08;;;;;;;1.73;1.60;;;32.70;31.60;;;;;;3600196;39;20031;-67
2021/06/18 09:35:34;;;;;;;2.08;1.92;;;32.70;31.90;;;;;;3600223;39;20024;-67
2021/06/18 09:38:03;;;;;;;3.40;1.90;;;32.60;31.90;;;;;;3600436;39;20100;-68
2021/06/18 09:40:30;;;;;;;3.78;2.00;;;32.60;31.60;;;;;;3599951;39;20495;-67
2021/06/18 09:42:59;;;;;;;3.53;1.73;;;32.60;33.10;;;;;;3601485;39;20068;-67
2021/06/18 09:45:44;;;;;;;2.33;2.13;;;32.60;32.70;;;;;;3597055;39;20032;-67
2021/06/18 09:48:22;;;;;;;3.42;2.30;;;32.70;33.00;;;;;;3598692;39;20036;-66
2021/06/18 09:50:57;;;;;;;3.70;2.03;;;32.80;33.20;;;;;;3598562;39;20132;-67
2021/06/18 09:53:27;;;;;;;3.28;2.75;;;32.90;31.40;;;;;;3599299;39;20140;-68
2021/06/18 09:56:04;;;;;;;4.40;2.20;;;33.00;31.30;;;;;;3599216;39;20054;-68
2021/06/18 09:58:35;;;;;;;5.53;2.20;;;33.00;30.90;;;;;;3599972;39;20658;-68
2021/06/18 10:01:32;;;;;;;2.38;2.17;;;33.10;30.80;;;;;;3600260;39;20047;-67
2021/06/18 10:04:02;;;;;;;3.63;1.83;;;33.10;30.90;;;;;;3599399;39;20117;-67
2021/06/18 10:06:33;;;;;;;2.90;2.20;;;33.00;30.20;;;;;;3600515;39;20095;-68
2021/06/18 10:09:02;;;;;;;27.85;2.38;;;33.10;31.00;;;;;;3588947;39;20023;-68
2021/06/18 10:11:29;;;;;;;4.95;1.95;;;33.30;30.00;;;;;;3596217;39;20042;-67
2021/06/18 10:13:56;;;;;;;3.75;2.00;;;33.30;30.40;;;;;;3600653;39;20035;-68
2021/06/18 10:16:23;;;;;;;3.00;1.90;;;33.30;30.20;;;;;;3599238;39;20046;-68
2021/06/18 10:18:50;;;;;;;3.35;1.90;;;33.20;30.80;;;;;;3586559;39;20036;-67
2021/06/18 10:21:17;;;;;;;2.10;1.90;;;33.40;30.00;;;;;;3598727;39;20109;-67
2021/06/18 10:23:44;;;;;;;3.17;2.10;;;33.30;30.00;;;;;;3597661;39;20042;-67
2021/06/18 10:26:12;;;;;;;4.15;2.20;;;33.30;30.30;;;;;;3590662;39;20028;-68
2021/06/18 10:28:38;;;;;;;3.83;1.80;;;33.30;30.00;;;;;;3599562;39;20027;-67
2021/06/18 10:31:07;;;;;;;2.75;2.10;;;33.30;29.90;;;;;;3597943;39;20015;-67
2021/06/18 10:33:35;;;;;;;2.97;2.15;;;33.30;30.70;;;;;;3597749;39;20064;-67
2021/06/18 10:36:10;;;;;;;2.08;1.88;;;33.40;30.30;;;;;;3593089;39;20052;-68
2021/06/18 10:38:37;;;;;;;4.50;1.75;;;33.50;29.80;;;;;;3598839;39;20499;-67
2021/06/18 10:41:22;;;;;;;8.13;2.20;;;33.40;29.90;;;;;;3590985;39;20071;-68
2021/06/18 10:43:56;;;;;;;5.93;2.10;;;33.50;29.60;;;;;;3599750;39;20055;-68
2021/06/18 10:46:28;;;;;;;3.70;1.93;;;33.60;30.00;;;;;;3598990;39;20031;-68
2021/06/18 10:48:56;;;;;;;3.50;1.85;;;33.60;30.30;;;;;;3596718;39;20051;-68
2021/06/18 10:51:41;;;;;;;5.57;2.00;;;33.70;29.50;;;;;;3595105;39;20038;-68
2021/06/18 10:54:12;;;;;;;3.05;1.90;;;33.90;30.00;;;;;;3600961;39;20046;-68
2021/06/18 10:56:44;;;;;;;4.43;2.00;;;34.00;30.00;;;;;;3596471;39;20171;-67
2021/06/18 10:59:25;;;;;;;7.78;2.30;;;34.00;30.10;;;;;;3591227;39;20038;-67
2021/06/18 11:01:51;;;;;;;2.28;1.83;;;34.10;29.70;;;;;;3596507;39;20044;-67
2021/06/18 11:04:34;;;;;;;4.68;2.38;;;33.90;29.90;;;;;;3584852;39;20644;-67
2021/06/18 11:07:23;;;;;;;4.15;2.20;;;33.80;29.90;;;;;;3587895;39;20034;-68
2021/06/18 11:10:12;;;;;;;2.67;2.10;;;33.80;30.60;;;;;;3590839;39;20036;-68
2021/06/18 11:12:48;;;;;;;2.50;2.00;;;33.80;30.10;;;;;;3595405;39;20028;-67
2021/06/18 11:15:20;;;;;;;2.20;1.95;;;33.90;30.00;;;;;;3595513;39;20764;-68
2021/06/18 11:17:48;;;;;;;2.50;2.13;;;33.90;30.30;;;;;;3597253;39;20044;-67
2021/06/18 11:20:14;;;;;;;10.90;2.85;;;33.90;30.10;;;;;;3596915;39;20036;-68
2021/06/18 11:25:39;;;;;;;4.65;2.35;;;33.90;30.10;;;;;;3593810;39;20044;-67
2021/06/18 11:28:26;;;;;;;2.75;2.00;;;33.90;30.50;;;;;;3594815;39;20040;-68
2021/06/18 11:31:13;;;;;;;3.30;2.20;;;34.10;29.60;;;;;;3597560;39;20028;-68
2021/06/18 11:36:30;;;;;;;2.70;1.90;;;34.00;29.70;;;;;;3589514;39;20212;-68
2021/06/18 11:39:15;;;;;;;2.28;1.90;;;34.10;28.90;;;;;;3599023;39;20028;-68
2021/06/18 11:41:43;;;;;;;3.28;1.90;;;34.10;28.70;;;;;;3595557;39;20031;-68
2021/06/18 11:44:11;;;;;;;2.90;2.08;;;34.10;28.20;;;;;;3598049;39;20438;-73
2021/06/18 11:46:37;;;;;;;6.03;2.00;;;34.20;28.70;;;;;;3589122;39;20047;-73
2021/06/18 11:49:17;;;;;;;2.95;2.10;;;34.20;28.80;;;;;;3595349;39;20064;-73
2021/06/18 11:51:43;;;;;;;4.47;1.90;;;34.20;29.20;;;;;;3593265;39;20035;-73
2021/06/18 11:54:29;;;;;;;3.05;2.00;;;34.20;29.50;;;;;;3595391;39;20044;-73
2021/06/18 11:57:03;;;;;;;2.20;2.00;;;34.20;28.20;;;;;;3586890;39;20400;-72
2021/06/18 11:59:29;;;;;;;3.05;1.65;;;34.30;28.80;;;;;;3599375;39;20043;-72
2021/06/18 12:01:55;;;;;;;2.08;1.83;;;34.30;28.20;;;;;;3595321;39;20687;-72
2021/06/18 12:04:21;;;;;;;2.17;1.90;;;34.30;28.50;;;;;;3597545;39;20032;-72
2021/06/18 12:06:48;;;;;;;2.50;1.70;;;34.40;27.60;;;;;;3598058;39;20036;-72
2021/06/18 12:09:19;;;;;;;2.55;1.77;;;34.40;27.70;;;;;;3598461;39;20401;-72
2021/06/18 12:11:52;;;;;;;7.13;1.85;;;34.40;27.60;;;;;;3587341;39;20028;-72
2021/06/18 12:14:18;;;;;;;2.17;1.95;;;34.60;27.30;;;;;;3598203;39;20046;-73
2021/06/18 12:16:46;;;;;;;2.80;1.85;;;34.50;28.00;;;;;;3598470;39;20144;-73
2021/06/18 12:19:22;;;;;;;3.53;1.83;;;34.50;27.50;;;;;;3598603;39;20039;-74
2021/06/18 12:22:03;;;;;;;3.97;1.88;;;34.60;27.20;;;;;;3597100;39;20032;-73
2021/06/18 12:24:33;;;;;;;2.30;1.90;;;34.50;27.50;;;;;;3597314;39;20375;-74
2021/06/18 12:27:00;;;;;;;2.20;1.50;;;34.50;27.30;;;;;;3599612;39;20106;-74
2021/06/18 12:29:27;;;;;;;1.95;1.75;;;34.50;27.50;;;;;;3597101;39;20074;-74
2021/06/18 12:31:55;;;;;;;2.03;1.83;;;34.40;27.70;;;;;;3597350;39;20024;-74
2021/06/18 12:34:21;;;;;;;6.15;1.73;;;34.40;27.90;;;;;;3599141;39;20680;-74
2021/06/18 12:36:58;;;;;;;6.07;1.75;;;34.50;27.50;;;;;;3588469;39;20043;-74
2021/06/18 12:39:24;;;;;;;1.88;1.77;;;34.50;27.00;;;;;;3597685;39;20120;-74
2021/06/18 12:41:50;;;;;;;3.97;1.77;;;34.50;27.10;;;;;;3596398;39;20374;-74
2021/06/18 12:44:16;;;;;;;1.67;1.58;;;34.50;27.20;;;;;;3586547;39;20040;-74
2021/06/18 12:46:55;;;;;;;1.95;1.58;;;34.50;27.00;;;;;;3595484;39;20043;-74
2021/06/18 12:49:28;;;;;;;4.72;1.80;;;34.40;26.80;;;;;;3597811;39;20036;-75
2021/06/18 12:52:09;;;;;;;4.40;2.10;;;34.40;26.80;;;;;;3599018;39;20048;-75
2021/06/18 12:54:34;;;;;;;1.60;1.50;;;34.40;26.60;;;;;;3597392;39;20043;-75
2021/06/18 12:57:00;;;;;;;2.67;1.85;;;34.50;26.10;;;;;;3590328;39;20036;-75
2021/06/18 12:59:36;;;;;;;2.70;1.65;;;34.70;26.90;;;;;;3595761;39;20032;-75